createdAt,value
2023-03-06T00:01:05.563Z,98971.28
2023-03-06T00:03:33.935Z,98970.63
2023-03-06T00:06:01.816Z,98971.53
2023-03-06T00:08:30.757Z,98970.63
2023-03-06T00:10:59.267Z,98969.31
2023-03-06T00:13:30.295Z,98966.53
2023-03-06T00:16:01.177Z,98958.00
2023-03-06T00:18:30.021Z,98959.84
2023-03-06T00:20:57.884Z,98959.78
2023-03-06T00:23:26.160Z,98962.59
2023-03-06T00:25:53.915Z,98958.03
2023-03-06T00:28:21.591Z,98962.69
2023-03-06T00:30:50.288Z,98958.97
2023-03-06T00:33:18.001Z,98958.59
2023-03-06T00:35:45.768Z,98948.69
2023-03-06T00:38:14.291Z,98946.34
2023-03-06T00:40:42.100Z,98947.06
2023-03-06T00:43:11.259Z,98946.22
2023-03-06T00:45:39.034Z,98945.72
2023-03-06T00:48:07.262Z,98940.47
2023-03-06T00:50:35.453Z,98942.72
2023-03-06T00:53:03.236Z,98939.16
2023-03-06T00:55:33.658Z,98942.16
2023-03-06T00:58:01.490Z,98942.41
2023-03-06T01:00:29.249Z,98940.47
2023-03-06T01:02:57.033Z,98937.75
2023-03-06T01:05:25.694Z,98933.06
2023-03-06T01:07:53.761Z,98931.03
2023-03-06T01:10:22.573Z,98939.88
2023-03-06T01:12:50.291Z,98937.41
2023-03-06T01:15:19.040Z,98939.28
2023-03-06T01:17:46.927Z,98942.47
2023-03-06T01:20:25.578Z,98935.56
2023-03-06T01:22:55.667Z,98931.84
2023-03-06T01:25:26.199Z,98940.59
2023-03-06T01:27:54.089Z,98933.00
2023-03-06T01:30:22.422Z,98934.09
2023-03-06T01:32:51.029Z,98928.94
2023-03-06T01:35:19.732Z,98936.47
2023-03-06T01:37:48.445Z,98930.22
2023-03-06T01:40:17.138Z,98929.19
2023-03-06T01:42:46.853Z,98930.78
2023-03-06T01:45:15.413Z,98924.97
2023-03-06T01:47:44.935Z,98924.97
2023-03-06T01:50:14.020Z,98920.63
2023-03-06T01:52:58.691Z,98909.13
2023-03-06T01:55:34.795Z,98919.31
2023-03-06T01:58:17.186Z,98907.59
2023-03-06T02:00:46.523Z,98911.59
2023-03-06T02:03:23.817Z,98911.72
2023-03-06T02:05:52.677Z,98904.88
2023-03-06T02:08:24.218Z,98906.50
2023-03-06T02:11:19.328Z,98913.22
2023-03-06T02:13:50.222Z,98910.19
2023-03-06T02:16:26.084Z,98901.03
2023-03-06T02:18:55.364Z,98903.06
2023-03-06T02:21:41.362Z,98904.41
2023-03-06T02:24:22.941Z,98903.69
2023-03-06T02:26:53.674Z,98897.22
2023-03-06T02:29:28.064Z,98904.41
2023-03-06T02:31:56.459Z,98905.56
2023-03-06T02:34:25.595Z,98905.78
2023-03-06T02:37:05.813Z,98903.59
2023-03-06T02:39:40.210Z,98901.88
2023-03-06T02:42:21.220Z,98901.63
2023-03-06T02:44:53.157Z,98901.56
2023-03-06T02:47:20.906Z,98906.88
2023-03-06T02:49:48.774Z,98905.38
2023-03-06T02:52:16.507Z,98902.69
2023-03-06T02:54:44.236Z,98900.72
2023-03-06T02:57:12.336Z,98897.41
2023-03-06T02:59:40.117Z,98889.38
2023-03-06T03:02:07.927Z,98896.00
2023-03-06T03:04:35.947Z,98899.78
2023-03-06T03:07:04.588Z,98899.50
2023-03-06T03:09:37.044Z,98899.63
2023-03-06T03:12:08.117Z,98894.47
2023-03-06T03:14:36.232Z,98898.31
2023-03-06T03:17:04.960Z,98895.66
2023-03-06T03:19:33.745Z,98895.94
2023-03-06T03:22:01.725Z,98897.78
2023-03-06T03:24:30.510Z,98892.63
2023-03-06T03:26:59.328Z,98884.53
2023-03-06T03:29:28.034Z,98887.53
2023-03-06T03:31:55.858Z,98896.00
2023-03-06T03:34:23.660Z,98883.22
2023-03-06T03:36:53.305Z,98894.63
2023-03-06T03:39:21.974Z,98889.19
2023-03-06T03:41:51.066Z,98883.06
2023-03-06T03:44:18.805Z,98889.66
2023-03-06T03:46:46.559Z,98890.50
2023-03-06T03:49:14.923Z,98886.25
2023-03-06T03:51:43.910Z,98889.84
2023-03-06T03:54:11.707Z,98885.34
2023-03-06T03:56:40.882Z,98888.38
2023-03-06T03:59:09.488Z,98887.44
2023-03-06T04:01:39.524Z,98884.94
2023-03-06T04:04:07.659Z,98893.53
2023-03-06T04:06:35.421Z,98880.47
2023-03-06T04:09:04.652Z,98884.50
2023-03-06T04:11:33.456Z,98891.31
2023-03-06T04:14:01.278Z,98882.53
2023-03-06T04:16:29.089Z,98884.19
2023-03-06T04:18:57.829Z,98885.44
2023-03-06T04:21:25.556Z,98885.00
2023-03-06T04:23:54.210Z,98878.97
2023-03-06T04:26:22.029Z,98888.03
2023-03-06T04:28:49.827Z,98880.63
2023-03-06T04:31:17.609Z,98880.84
2023-03-06T04:33:45.365Z,98884.13
2023-03-06T04:36:45.201Z,98881.63
2023-03-06T04:39:15.123Z,98875.31
2023-03-06T04:41:43.294Z,98893.41
2023-03-06T04:44:12.120Z,98878.63
2023-03-06T04:46:40.790Z,98877.63
2023-03-06T04:49:08.550Z,98887.72
2023-03-06T04:51:37.488Z,98885.41
2023-03-06T04:54:06.352Z,98881.53
2023-03-06T04:56:34.785Z,98887.22
2023-03-06T04:59:04.837Z,98877.22
2023-03-06T05:01:33.601Z,98875.81
2023-03-06T05:04:02.316Z,98885.72
2023-03-06T05:06:30.971Z,98876.94
2023-03-06T05:08:59.767Z,98873.13
2023-03-06T05:11:28.637Z,98882.28
2023-03-06T05:13:58.105Z,98882.41
2023-03-06T05:16:27.586Z,98881.94
2023-03-06T05:18:56.348Z,98877.44
2023-03-06T05:21:25.773Z,98885.59
2023-03-06T05:23:53.842Z,98875.78
2023-03-06T05:26:22.589Z,98883.97
2023-03-06T05:28:51.261Z,98889.09
2023-03-06T05:31:19.977Z,98883.34
2023-03-06T05:33:48.669Z,98883.69
2023-03-06T05:36:17.387Z,98886.38
2023-03-06T05:38:46.020Z,98888.09
2023-03-06T05:41:15.459Z,98884.78
2023-03-06T05:43:44.970Z,98897.31
2023-03-06T05:46:13.739Z,98888.81
2023-03-06T05:48:42.415Z,98893.97
2023-03-06T05:51:12.193Z,98893.56
2023-03-06T05:53:41.634Z,98890.09
2023-03-06T05:56:10.411Z,98896.66
2023-03-06T05:58:39.345Z,98889.38
2023-03-06T06:01:18.761Z,98895.41
2023-03-06T06:03:48.484Z,98896.47
2023-03-06T06:06:16.551Z,98904.53
2023-03-06T06:08:45.336Z,98902.81
2023-03-06T06:11:15.028Z,98896.31
2023-03-06T06:13:44.559Z,98900.66
2023-03-06T06:16:16.980Z,98904.50
2023-03-06T06:18:46.879Z,98897.69
2023-03-06T06:21:16.534Z,98908.25
2023-03-06T06:23:46.350Z,98908.38
2023-03-06T06:26:14.999Z,98905.81
2023-03-06T06:28:42.770Z,98913.91
2023-03-06T06:31:13.295Z,98915.44
2023-03-06T06:33:42.494Z,98909.97
2023-03-06T06:36:22.147Z,98906.75
2023-03-06T06:38:52.363Z,98898.16
2023-03-06T06:41:46.961Z,98911.97
2023-03-06T06:44:15.613Z,98921.34
2023-03-06T06:49:36.220Z,98915.72
2023-03-06T06:52:07.480Z,98917.78
2023-03-06T06:54:36.970Z,98918.03
2023-03-06T06:57:04.916Z,98913.59
2023-03-06T06:59:32.724Z,98919.44
2023-03-06T07:02:02.244Z,98909.63
2023-03-06T07:04:30.962Z,98924.84
2023-03-06T07:07:01.251Z,98921.78
2023-03-06T07:09:31.074Z,98918.03
2023-03-06T07:12:00.039Z,98923.50
2023-03-06T07:14:28.793Z,98932.75
2023-03-06T07:16:58.602Z,98924.69
2023-03-06T07:19:28.141Z,98918.59
2023-03-06T07:21:57.614Z,98924.34
2023-03-06T07:24:28.243Z,98917.00
2023-03-06T07:26:56.120Z,98914.25
2023-03-06T07:29:25.575Z,98920.41
2023-03-06T07:31:55.118Z,98926.47
2023-03-06T07:34:23.800Z,98929.88
2023-03-06T07:36:52.465Z,98934.47
2023-03-06T07:39:21.998Z,98940.19
2023-03-06T07:41:52.464Z,98943.72
2023-03-06T07:44:22.278Z,98944.56
2023-03-06T07:46:51.806Z,98942.28
2023-03-06T07:49:21.388Z,98935.97
2023-03-06T07:51:50.807Z,98945.81
2023-03-06T07:54:20.289Z,98948.28
2023-03-06T07:56:53.699Z,98958.38
2023-03-06T07:59:23.153Z,98951.19
2023-03-06T08:01:56.074Z,98949.25
2023-03-06T08:04:25.610Z,98945.56
2023-03-06T08:06:57.645Z,98953.00
2023-03-06T08:09:27.302Z,98941.91
2023-03-06T08:11:57.196Z,98942.00
2023-03-06T08:14:26.841Z,98942.78
2023-03-06T08:16:57.289Z,98940.34
2023-03-06T08:19:25.007Z,98942.59
2023-03-06T08:21:54.479Z,98951.94
2023-03-06T08:24:23.155Z,98952.63
2023-03-06T08:26:51.890Z,98958.03
2023-03-06T08:29:21.385Z,98950.44
2023-03-06T08:31:51.624Z,98955.28
2023-03-06T08:34:25.262Z,98961.72
2023-03-06T08:36:54.264Z,98956.84
2023-03-06T08:39:23.843Z,98955.69
2023-03-06T08:41:53.315Z,98951.88
2023-03-06T08:44:22.737Z,98956.41
2023-03-06T08:46:50.559Z,98959.84
2023-03-06T08:49:19.557Z,98954.88
2023-03-06T08:51:48.300Z,98953.00
2023-03-06T08:54:17.012Z,98952.31
2023-03-06T08:56:45.716Z,98954.81
2023-03-06T08:59:14.777Z,98959.34
2023-03-06T09:01:42.652Z,98957.69
2023-03-06T09:04:12.294Z,98961.78
2023-03-06T09:06:43.159Z,98962.97
2023-03-06T09:09:13.047Z,98959.09
2023-03-06T09:11:41.738Z,98964.38
2023-03-06T09:14:10.419Z,98961.53
2023-03-06T09:16:39.425Z,98961.53
2023-03-06T09:19:07.360Z,98955.66
2023-03-06T09:21:35.058Z,98951.25
2023-03-06T09:24:07.192Z,98959.72
2023-03-06T09:26:45.378Z,98951.88
2023-03-06T09:29:16.616Z,98945.28
2023-03-06T09:31:46.396Z,98955.22
2023-03-06T09:34:15.319Z,98944.50
2023-03-06T09:36:55.950Z,98937.91
2023-03-06T09:39:24.991Z,98944.47
2023-03-06T09:41:57.700Z,98926.97
2023-03-06T09:44:34.017Z,98920.25
2023-03-06T09:47:38.797Z,98914.34
2023-03-06T09:50:28.781Z,98929.03
2023-03-06T09:53:33.078Z,98912.63
2023-03-06T09:56:33.567Z,98918.25
2023-03-06T09:59:25.142Z,98918.53
2023-03-06T10:02:34.381Z,98906.41
2023-03-06T10:05:09.484Z,98907.38
2023-03-06T10:08:36.759Z,98901.72
2023-03-06T10:11:11.288Z,98908.00
2023-03-06T10:14:18.998Z,98902.78
2023-03-06T10:16:47.868Z,98909.22
2023-03-06T10:19:20.772Z,98902.75
2023-03-06T10:22:21.733Z,98902.31
2023-03-06T10:25:10.412Z,98905.06
2023-03-06T10:27:57.904Z,98906.19
2023-03-06T10:30:48.597Z,98898.94
2023-03-06T10:33:47.901Z,98894.22
2023-03-06T10:36:21.329Z,98891.56
2023-03-06T10:38:50.521Z,98892.84
2023-03-06T10:41:31.809Z,98884.94
2023-03-06T10:44:01.162Z,98878.06
2023-03-06T10:46:42.592Z,98868.59
2023-03-06T10:49:35.684Z,98864.53
2023-03-06T10:52:10.382Z,98861.09
2023-03-06T10:54:43.870Z,98867.13
2023-03-06T10:57:32.253Z,98861.94
2023-03-06T11:00:08.712Z,98851.28
2023-03-06T11:02:41.266Z,98855.22
2023-03-06T11:05:21.572Z,98854.06
2023-03-06T11:08:00.364Z,98860.16
2023-03-06T11:10:32.030Z,98852.53
2023-03-06T11:13:23.838Z,98844.72
2023-03-06T11:16:30.772Z,98831.94
2023-03-06T11:19:05.687Z,98834.88
2023-03-06T11:21:40.559Z,98828.81
2023-03-06T11:24:20.978Z,98822.78
2023-03-06T11:27:02.274Z,98818.75
2023-03-06T11:29:46.093Z,98815.91
2023-03-06T11:32:24.367Z,98799.78
2023-03-06T11:35:21.694Z,98793.88
2023-03-06T11:38:14.601Z,98793.47
2023-03-06T11:40:56.106Z,98781.28
2023-03-06T11:44:17.548Z,98777.97
2023-03-06T11:47:15.883Z,98776.06
2023-03-06T11:50:06.491Z,98768.97
2023-03-06T11:52:57.758Z,98760.25
2023-03-06T11:55:48.614Z,98757.91
2023-03-06T11:59:07.860Z,98748.31
2023-03-06T12:02:16.480Z,98740.22
2023-03-06T12:05:53.410Z,98737.63
2023-03-06T12:08:47.075Z,98737.81
2023-03-06T12:11:43.814Z,98728.94
2023-03-06T12:14:30.952Z,98732.91
2023-03-06T12:17:31.014Z,98723.03
2023-03-06T12:20:22.423Z,98718.19
2023-03-06T12:23:14.630Z,98706.88
2023-03-06T12:26:40.486Z,98701.25
2023-03-06T12:30:00.232Z,98695.66
2023-03-06T12:32:41.750Z,98692.13
2023-03-06T12:35:47.193Z,98684.78
2023-03-06T12:39:04.304Z,98684.41
2023-03-06T12:42:04.935Z,98684.47
2023-03-06T12:45:10.138Z,98682.53
2023-03-06T12:47:46.755Z,98678.72
2023-03-06T12:50:38.431Z,98670.84
2023-03-06T12:53:21.238Z,98675.00
2023-03-06T12:55:52.374Z,98671.34
2023-03-06T12:58:56.289Z,98666.31
2023-03-06T13:02:05.456Z,98667.66
2023-03-06T13:05:13.589Z,98657.53
2023-03-06T13:08:46.038Z,98660.34
2023-03-06T13:11:49.792Z,98662.63
2023-03-06T13:14:28.324Z,98663.91
2023-03-06T13:17:35.489Z,98664.47
2023-03-06T13:20:14.947Z,98661.56
2023-03-06T13:22:47.344Z,98661.03
2023-03-06T13:25:19.931Z,98660.44
2023-03-06T13:27:54.739Z,98655.78
2023-03-06T13:30:45.326Z,98657.56
2023-03-06T13:33:30.226Z,98660.88
2023-03-06T13:36:24.274Z,98652.84
2023-03-06T13:38:55.179Z,98650.22
2023-03-06T13:41:26.217Z,98644.88
2023-03-06T13:44:00.301Z,98636.91
2023-03-06T13:46:40.214Z,98640.63
2023-03-06T13:49:09.639Z,98625.22
2023-03-06T13:52:23.444Z,98620.75
2023-03-06T13:55:42.332Z,98618.09
2023-03-06T13:58:24.588Z,98611.50
2023-03-06T14:01:46.858Z,98612.13
2023-03-06T14:04:29.140Z,98610.53
2023-03-06T14:07:09.589Z,98615.25
2023-03-06T14:09:46.951Z,98612.19
2023-03-06T14:12:31.677Z,98601.47
2023-03-06T14:15:21.430Z,98598.66
2023-03-06T14:18:23.841Z,98596.19
2023-03-06T14:21:05.790Z,98599.09
2023-03-06T14:23:43.665Z,98587.00
2023-03-06T14:26:27.748Z,98587.13
2023-03-06T14:29:00.632Z,98593.81
2023-03-06T14:31:34.623Z,98581.44
2023-03-06T14:34:21.229Z,98575.09
2023-03-06T14:37:02.173Z,98568.78
2023-03-06T14:39:44.274Z,98576.47
2023-03-06T14:42:29.903Z,98572.84
2023-03-06T14:45:25.202Z,98572.75
2023-03-06T14:47:54.213Z,98567.13
2023-03-06T14:50:31.236Z,98562.53
2023-03-06T14:53:14.342Z,98566.78
2023-03-06T14:55:59.109Z,98573.03
2023-03-06T14:58:38.710Z,98567.97
2023-03-06T15:01:11.204Z,98566.81
2023-03-06T15:03:52.390Z,98551.81
2023-03-06T15:06:25.971Z,98558.81
2023-03-06T15:09:34.705Z,98563.97
2023-03-06T15:12:33.987Z,98561.19
2023-03-06T15:15:19.058Z,98561.56
2023-03-06T15:17:48.567Z,98557.03
2023-03-06T15:20:43.908Z,98552.94
2023-03-06T15:23:42.426Z,98559.16
2023-03-06T15:26:36.984Z,98554.19
2023-03-06T15:29:10.347Z,98548.75
2023-03-06T15:31:49.589Z,98557.19
2023-03-06T15:34:23.929Z,98555.06
2023-03-06T15:36:58.527Z,98557.53
2023-03-06T15:39:38.075Z,98548.16
2023-03-06T15:42:23.606Z,98536.88
2023-03-06T15:45:00.164Z,98539.28
2023-03-06T15:47:30.639Z,98551.91
2023-03-06T15:49:59.387Z,98545.25
2023-03-06T15:52:29.036Z,98551.16
2023-03-06T15:54:58.584Z,98552.09
2023-03-06T15:57:29.525Z,98557.22
2023-03-06T16:00:00.984Z,98557.69
2023-03-06T16:02:30.501Z,98559.63
2023-03-06T16:05:02.597Z,98558.00
2023-03-06T16:07:32.156Z,98548.16
2023-03-06T16:10:01.723Z,98549.91
2023-03-06T16:12:31.828Z,98541.59
2023-03-06T16:15:03.154Z,98546.41
2023-03-06T16:17:32.737Z,98544.66
2023-03-06T16:20:01.332Z,98544.00
2023-03-06T16:22:30.772Z,98544.19
2023-03-06T16:25:00.346Z,98550.59
2023-03-06T16:27:30.016Z,98553.47
2023-03-06T16:29:59.548Z,98550.94
2023-03-06T16:32:29.168Z,98552.03
2023-03-06T16:34:57.973Z,98552.22
2023-03-06T16:37:27.700Z,98553.59
2023-03-06T16:39:57.115Z,98548.78
2023-03-06T16:42:26.722Z,98552.38
2023-03-06T16:44:55.457Z,98550.56
2023-03-06T16:47:25.946Z,98546.22
2023-03-06T16:49:58.183Z,98552.00
2023-03-06T16:52:28.283Z,98551.09
2023-03-06T16:54:57.035Z,98555.72
2023-03-06T16:57:31.605Z,98560.34
2023-03-06T17:00:01.198Z,98553.16
2023-03-06T17:02:29.942Z,98562.81
2023-03-06T17:04:58.999Z,98560.44
2023-03-06T17:07:29.670Z,98557.47
2023-03-06T17:09:59.350Z,98567.34
2023-03-06T17:12:28.844Z,98577.44
2023-03-06T17:14:57.646Z,98581.31
2023-03-06T17:17:26.321Z,98587.66
2023-03-06T17:19:55.819Z,98589.56
2023-03-06T17:22:24.858Z,98598.28
2023-03-06T17:24:55.034Z,98594.59
2023-03-06T17:27:24.546Z,98595.38
2023-03-06T17:29:57.810Z,98591.53
2023-03-06T17:32:28.958Z,98591.50
2023-03-06T17:34:58.855Z,98586.44
2023-03-06T17:37:28.692Z,98580.47
2023-03-06T17:39:57.436Z,98572.59
2023-03-06T17:42:26.975Z,98574.53
2023-03-06T17:44:57.492Z,98578.22
2023-03-06T17:47:28.037Z,98570.06
2023-03-06T17:49:57.568Z,98576.53
2023-03-06T17:52:29.642Z,98563.22
2023-03-06T17:54:59.083Z,98567.22
2023-03-06T17:57:27.772Z,98559.69
2023-03-06T17:59:56.518Z,98565.72
2023-03-06T18:02:26.062Z,98565.44
2023-03-06T18:04:58.301Z,98573.25
2023-03-06T18:07:27.816Z,98578.91
2023-03-06T18:09:57.415Z,98570.84
2023-03-06T18:12:27.059Z,98571.69
2023-03-06T18:14:56.849Z,98565.03
2023-03-06T18:17:26.535Z,98558.47
2023-03-06T18:19:56.880Z,98563.09
2023-03-06T18:22:26.328Z,98553.16
2023-03-06T18:24:56.138Z,98554.59
2023-03-06T18:27:25.658Z,98553.59
2023-03-06T18:29:55.748Z,98552.13
2023-03-06T18:32:24.467Z,98556.56
2023-03-06T18:34:55.190Z,98546.94
2023-03-06T18:37:25.089Z,98547.66
2023-03-06T18:39:55.018Z,98553.16
2023-03-06T18:42:24.825Z,98551.16
2023-03-06T18:44:53.547Z,98548.16
2023-03-06T18:47:22.997Z,98549.88
2023-03-06T18:49:51.648Z,98551.38
2023-03-06T18:52:20.524Z,98548.41
2023-03-06T18:54:52.327Z,98545.59
2023-03-06T18:57:21.148Z,98555.66
2023-03-06T18:59:49.040Z,98557.41
2023-03-06T19:02:17.840Z,98552.22
2023-03-06T19:04:47.478Z,98552.09
2023-03-06T19:07:15.243Z,98544.81
2023-03-06T19:09:44.757Z,98549.91
2023-03-06T19:12:13.482Z,98548.81
2023-03-06T19:14:44.378Z,98546.59
2023-03-06T19:17:13.892Z,98558.72
2023-03-06T19:19:42.535Z,98554.81
2023-03-06T19:22:11.305Z,98562.09
2023-03-06T19:24:40.772Z,98564.56
2023-03-06T19:27:11.592Z,98565.53
2023-03-06T19:29:42.059Z,98557.59
2023-03-06T19:32:11.654Z,98550.59
2023-03-06T19:34:40.422Z,98558.53
2023-03-06T19:37:09.994Z,98555.81
2023-03-06T19:39:39.587Z,98551.72
2023-03-06T19:42:07.492Z,98568.19
2023-03-06T19:44:37.946Z,98573.88
2023-03-06T19:47:07.632Z,98567.50
2023-03-06T19:49:38.862Z,98565.91
2023-03-06T19:52:08.349Z,98575.25
2023-03-06T19:54:38.046Z,98578.19
2023-03-06T19:57:07.923Z,98581.19
2023-03-06T19:59:37.433Z,98561.81
2023-03-06T20:02:07.356Z,98550.25
2023-03-06T20:04:37.172Z,98559.94
2023-03-06T20:07:06.966Z,98561.47
2023-03-06T20:09:36.568Z,98561.94
2023-03-06T20:12:08.264Z,98558.50
2023-03-06T20:14:37.956Z,98553.25
2023-03-06T20:17:08.134Z,98554.25
2023-03-06T20:19:37.837Z,98569.75
2023-03-06T20:22:07.503Z,98561.88
2023-03-06T20:24:37.063Z,98571.25
2023-03-06T20:27:06.685Z,98566.72
2023-03-06T20:29:36.301Z,98564.53
2023-03-06T20:32:06.193Z,98557.19
2023-03-06T20:34:39.144Z,98558.59
2023-03-06T20:37:11.982Z,98554.88
2023-03-06T20:39:41.640Z,98547.22
2023-03-06T20:42:11.465Z,98553.47
2023-03-06T20:44:41.400Z,98550.78
2023-03-06T20:47:11.008Z,98553.00
2023-03-06T20:49:40.624Z,98547.00
2023-03-06T20:52:10.182Z,98541.59
2023-03-06T20:54:39.990Z,98546.38
2023-03-06T20:57:09.544Z,98541.28
2023-03-06T20:59:39.188Z,98539.56
2023-03-06T21:02:09.817Z,98535.03
2023-03-06T21:04:41.160Z,98547.56
2023-03-06T21:07:10.812Z,98547.91
2023-03-06T21:09:40.351Z,98550.03
2023-03-06T21:12:09.864Z,98548.16
2023-03-06T21:14:39.390Z,98551.91
2023-03-06T21:17:08.872Z,98558.06
2023-03-06T21:19:38.386Z,98563.00
2023-03-06T21:22:07.591Z,98566.44
2023-03-06T21:24:37.436Z,98566.50
2023-03-06T21:27:06.972Z,98567.53
2023-03-06T21:29:36.616Z,98559.63
2023-03-06T21:32:06.534Z,98562.22
2023-03-06T21:34:36.166Z,98552.53
2023-03-06T21:37:05.687Z,98553.38
2023-03-06T21:39:35.481Z,98543.09
2023-03-06T21:42:05.823Z,98542.78
2023-03-06T21:44:35.352Z,98547.59
2023-03-06T21:47:05.220Z,98547.06
2023-03-06T21:49:34.881Z,98553.00
2023-03-06T21:52:04.932Z,98548.91
2023-03-06T21:54:35.431Z,98549.97
2023-03-06T21:57:05.338Z,98536.84
2023-03-06T21:59:34.939Z,98538.63
2023-03-06T22:02:04.693Z,98536.94
2023-03-06T22:04:34.418Z,98531.06
2023-03-06T22:07:04.100Z,98541.91
2023-03-06T22:09:35.877Z,98537.00
2023-03-06T22:12:06.078Z,98536.44
2023-03-06T22:14:35.708Z,98537.53
2023-03-06T22:17:05.446Z,98538.38
2023-03-06T22:19:35.336Z,98540.63
2023-03-06T22:22:05.552Z,98538.13
2023-03-06T22:24:35.220Z,98538.00
2023-03-06T22:27:05.170Z,98541.50
2023-03-06T22:29:34.852Z,98548.06
2023-03-06T22:32:04.656Z,98547.31
2023-03-06T22:34:34.509Z,98546.66
2023-03-06T22:37:04.273Z,98549.75
2023-03-06T22:39:33.753Z,98548.31
2023-03-06T22:42:03.545Z,98553.41
2023-03-06T22:44:33.013Z,98550.47
2023-03-06T22:47:02.504Z,98538.94
2023-03-06T22:49:32.691Z,98547.16
2023-03-06T22:52:02.179Z,98547.88
2023-03-06T22:54:31.077Z,98548.75
2023-03-06T22:56:59.776Z,98551.03
2023-03-06T22:59:28.536Z,98553.16
2023-03-06T23:01:57.201Z,98554.59
2023-03-06T23:04:26.027Z,98556.81
2023-03-06T23:06:55.894Z,98551.59
2023-03-06T23:09:25.291Z,98549.75
2023-03-06T23:11:53.982Z,98552.41
2023-03-06T23:14:22.702Z,98559.63
2023-03-06T23:16:51.880Z,98558.75
2023-03-06T23:19:21.335Z,98550.91
2023-03-06T23:21:50.842Z,98560.50
2023-03-06T23:24:20.344Z,98562.03
2023-03-06T23:26:49.374Z,98566.78
2023-03-06T23:29:18.816Z,98558.31
2023-03-06T23:31:48.348Z,98566.41
2023-03-06T23:34:17.919Z,98563.75
2023-03-06T23:36:47.461Z,98563.34
2023-03-06T23:39:16.919Z,98545.09
2023-03-06T23:41:46.400Z,98555.19
2023-03-06T23:44:15.933Z,98556.81
2023-03-06T23:46:45.462Z,98553.75
2023-03-06T23:49:15.201Z,98563.63
2023-03-06T23:51:44.756Z,98559.75
2023-03-06T23:54:12.523Z,98561.06
2023-03-06T23:56:42.052Z,98558.91
2023-03-06T23:59:13.056Z,98564.59
